createdAt,value
2018-09-03T00:00:42.025Z,16.80
2018-09-03T00:03:09.889Z,18.73
2018-09-03T00:05:37.500Z,14.77
2018-09-03T00:08:06.089Z,17.20
2018-09-03T00:10:33.648Z,18.00
2018-09-03T00:13:01.320Z,18.13
2018-09-03T00:15:29.154Z,16.70
2018-09-03T00:17:56.678Z,15.73
2018-09-03T00:20:24.567Z,16.97
2018-09-03T00:22:52.988Z,16.20
2018-09-03T00:25:20.616Z,18.10
2018-09-03T00:27:49.747Z,16.50
2018-09-03T00:30:17.599Z,18.20
2018-09-03T00:32:50.853Z,18.10
2018-09-03T00:35:24.105Z,18.73
2018-09-03T00:37:57.358Z,20.60
2018-09-03T00:40:30.575Z,21.30
2018-09-03T00:43:03.847Z,22.10
2018-09-03T00:45:37.203Z,22.60
2018-09-03T00:48:05.294Z,24.10
2018-09-03T00:50:32.991Z,21.93
2018-09-03T00:53:00.722Z,22.97
2018-09-03T00:55:28.421Z,21.87
2018-09-03T00:57:55.966Z,20.33
2018-09-03T01:00:24.363Z,22.30
2018-09-03T01:02:52.035Z,21.93
2018-09-03T01:05:20.416Z,21.60
2018-09-03T01:07:48.051Z,21.60
2018-09-03T01:10:16.470Z,21.10
2018-09-03T01:12:44.283Z,21.07
2018-09-03T01:15:11.912Z,21.90
2018-09-03T01:17:40.331Z,23.70
2018-09-03T01:20:08.084Z,24.20
2018-09-03T01:22:35.942Z,24.60
2018-09-03T01:25:03.716Z,26.13
2018-09-03T01:27:32.788Z,27.40
2018-09-03T01:30:00.451Z,26.00
2018-09-03T01:32:29.556Z,26.70
2018-09-03T01:34:57.735Z,24.00
2018-09-03T01:37:25.375Z,25.30
2018-09-03T01:39:53.091Z,23.87
2018-09-03T01:42:20.838Z,24.47
2018-09-03T01:44:49.363Z,26.30
2018-09-03T01:47:17.009Z,24.07
2018-09-03T01:49:44.652Z,25.87
2018-09-03T01:52:12.217Z,24.90
2018-09-03T01:54:39.983Z,26.30
2018-09-03T01:57:07.856Z,26.67
2018-09-03T01:59:36.647Z,26.37
2018-09-03T02:02:04.212Z,26.53
2018-09-03T02:04:31.983Z,24.97
2018-09-03T02:06:59.847Z,26.27
2018-09-03T02:09:27.422Z,25.73
2018-09-03T02:11:54.980Z,26.27
2018-09-03T02:14:22.798Z,25.47
2018-09-03T02:16:50.445Z,26.63
2018-09-03T02:19:17.989Z,25.53
2018-09-03T02:21:45.643Z,26.30
2018-09-03T02:24:13.328Z,25.97
2018-09-03T02:26:40.959Z,24.77
2018-09-03T02:29:08.895Z,24.03
2018-09-03T02:31:36.463Z,26.67
2018-09-03T02:34:04.388Z,27.73
2018-09-03T02:36:31.988Z,26.13
2018-09-03T02:38:59.869Z,27.70
2018-09-03T02:41:27.468Z,25.80
2018-09-03T02:43:55.780Z,25.80
2018-09-03T02:46:23.458Z,24.10
2018-09-03T02:48:51.193Z,24.80
2018-09-03T02:51:18.888Z,25.73
2018-09-03T02:53:47.253Z,26.60
2018-09-03T02:56:15.797Z,27.37
2018-09-03T02:58:44.035Z,27.00
2018-09-03T03:01:11.659Z,26.77
2018-09-03T03:03:39.288Z,27.70
2018-09-03T03:06:07.650Z,26.63
2018-09-03T03:08:35.303Z,25.23
2018-09-03T03:11:03.138Z,26.17
2018-09-03T03:13:30.684Z,26.47
2018-09-03T03:15:58.256Z,24.70
2018-09-03T03:18:26.559Z,24.40
2018-09-03T03:20:54.269Z,22.70
2018-09-03T03:23:22.365Z,22.77
2018-09-03T03:25:49.971Z,23.47
2018-09-03T03:28:17.690Z,23.13
2018-09-03T03:30:45.605Z,23.30
2018-09-03T03:33:13.339Z,22.60
2018-09-03T03:35:41.093Z,23.13
2018-09-03T03:38:08.963Z,24.47
2018-09-03T03:40:37.489Z,22.33
2018-09-03T03:43:05.175Z,22.87
2018-09-03T03:45:32.992Z,21.77
2018-09-03T03:48:00.683Z,22.80
2018-09-03T03:50:28.286Z,22.10
2018-09-03T03:52:56.211Z,23.20
2018-09-03T03:55:24.048Z,22.10
2018-09-03T03:57:51.684Z,22.07
2018-09-03T04:00:19.575Z,22.93
2018-09-03T04:02:47.128Z,19.80
2018-09-03T04:05:14.835Z,20.40
2018-09-03T04:07:42.356Z,21.10
2018-09-03T04:10:10.567Z,22.63
2018-09-03T04:12:38.221Z,21.40
2018-09-03T04:15:06.040Z,19.40
2018-09-03T04:17:33.708Z,21.00
2018-09-03T04:20:03.900Z,23.83
2018-09-03T04:22:33.307Z,21.03
2018-09-03T04:25:01.482Z,22.00
2018-09-03T04:27:29.415Z,21.37
2018-09-03T04:29:57.200Z,24.93
2018-09-03T04:32:24.919Z,21.87
2018-09-03T04:34:52.747Z,22.03
2018-09-03T04:37:20.632Z,22.97
2018-09-03T04:39:48.659Z,22.30
2018-09-03T04:42:16.347Z,22.60
2018-09-03T04:44:44.014Z,25.30
2018-09-03T04:47:11.667Z,24.63
2018-09-03T04:49:39.792Z,23.60
2018-09-03T04:52:07.425Z,24.33
2018-09-03T04:54:35.140Z,26.00
2018-09-03T04:57:02.766Z,26.00
2018-09-03T04:59:30.643Z,25.90
2018-09-03T05:01:58.288Z,26.53
2018-09-03T05:04:25.902Z,26.50
2018-09-03T05:06:53.748Z,28.37
2018-09-03T05:09:22.687Z,26.40
2018-09-03T05:11:50.269Z,27.07
2018-09-03T05:14:18.029Z,27.30
2018-09-03T05:16:45.726Z,26.70
2018-09-03T05:19:13.364Z,25.90
2018-09-03T05:21:40.944Z,24.00
2018-09-03T05:24:08.653Z,22.97
2018-09-03T05:26:36.428Z,26.83
2018-09-03T05:29:04.070Z,26.27
2018-09-03T05:31:32.728Z,26.40
2018-09-03T05:34:00.415Z,25.53
2018-09-03T05:36:28.072Z,23.90
2018-09-03T05:38:55.863Z,22.77
2018-09-03T05:41:24.131Z,21.30
2018-09-03T05:43:51.756Z,22.20
2018-09-03T05:46:19.630Z,22.40
2018-09-03T05:48:48.056Z,22.93
2018-09-03T05:51:15.662Z,22.20
2018-09-03T05:53:43.281Z,16.70
2018-09-03T05:56:10.812Z,14.50
2018-09-03T05:58:38.523Z,20.93
2018-09-03T06:01:06.248Z,22.80
2018-09-03T06:03:35.215Z,20.17
2018-09-03T06:06:02.872Z,22.47
2018-09-03T06:08:30.788Z,22.70
2018-09-03T06:10:58.785Z,24.40
2018-09-03T06:13:26.420Z,23.63
2018-09-03T06:15:54.024Z,23.20
2018-09-03T06:18:21.688Z,24.53
2018-09-03T06:20:49.348Z,22.40
2018-09-03T06:23:17.999Z,23.03
2018-09-03T06:25:45.771Z,23.60
2018-09-03T06:28:13.951Z,22.03
2018-09-03T06:30:41.641Z,23.23
2018-09-03T06:33:09.359Z,23.40
2018-09-03T06:35:36.893Z,23.77
2018-09-03T06:38:05.620Z,23.70
2018-09-03T06:40:33.290Z,22.60
2018-09-03T06:43:01.023Z,23.80
2018-09-03T06:45:28.673Z,23.07
2018-09-03T06:47:56.416Z,21.50
2018-09-03T06:50:24.260Z,22.20
2018-09-03T06:52:51.939Z,22.63
2018-09-03T06:55:19.662Z,23.20
2018-09-03T06:57:47.355Z,21.90
2018-09-03T07:00:15.202Z,21.90
2018-09-03T07:02:42.919Z,21.87
2018-09-03T07:05:12.143Z,21.43
2018-09-03T07:07:39.860Z,27.43
2018-09-03T07:10:08.446Z,21.63
2018-09-03T07:12:41.120Z,21.13
2018-09-03T07:15:08.780Z,21.27
2018-09-03T07:17:36.794Z,19.43
2018-09-03T07:20:04.516Z,22.53
2018-09-03T07:22:32.408Z,19.60
2018-09-03T07:25:00.237Z,21.00
2018-09-03T07:27:28.085Z,22.43
2018-09-03T07:29:56.738Z,25.83
2018-09-03T07:32:24.309Z,21.97
2018-09-03T07:34:51.915Z,20.60
2018-09-03T07:37:19.520Z,21.50
2018-09-03T07:39:47.364Z,21.00
2018-09-03T07:42:15.700Z,21.07
2018-09-03T07:44:43.287Z,19.43
2018-09-03T07:47:11.036Z,19.33
2018-09-03T07:49:39.604Z,18.57
2018-09-03T07:52:07.276Z,21.00
2018-09-03T07:54:35.040Z,18.67
2018-09-03T07:57:03.758Z,21.00
2018-09-03T07:59:31.897Z,20.10
2018-09-03T08:01:59.635Z,20.70
2018-09-03T08:04:27.368Z,21.20
2018-09-03T08:06:54.976Z,19.87
2018-09-03T08:09:22.656Z,20.77
2018-09-03T08:11:50.524Z,19.70
2018-09-03T08:14:18.447Z,18.37
2018-09-03T08:16:46.083Z,20.10
2018-09-03T08:19:13.755Z,18.47
2018-09-03T08:21:42.281Z,18.53
2018-09-03T08:24:10.631Z,16.80
2018-09-03T08:26:38.226Z,15.93
2018-09-03T08:29:05.976Z,18.70
2018-09-03T08:31:33.675Z,15.10
2018-09-03T08:34:02.032Z,17.03
2018-09-03T08:36:29.758Z,16.17
2018-09-03T08:38:57.420Z,17.53
2018-09-03T08:41:25.055Z,19.23
2018-09-03T08:43:52.607Z,18.40
2018-09-03T08:46:20.246Z,19.80
2018-09-03T08:48:47.896Z,18.13
2018-09-03T08:51:15.538Z,16.40
2018-09-03T08:53:43.369Z,17.93
2018-09-03T08:56:11.132Z,19.50
2018-09-03T08:58:38.763Z,20.00
2018-09-03T09:01:06.548Z,18.10
2018-09-03T09:03:42.461Z,17.73
2018-09-03T09:06:10.856Z,16.97
2018-09-03T09:08:38.444Z,17.70
2018-09-03T09:11:07.247Z,18.10
2018-09-03T09:13:34.837Z,17.80
2018-09-03T09:16:02.604Z,16.57
2018-09-03T09:18:31.190Z,18.07
2018-09-03T09:21:00.499Z,17.10
2018-09-03T09:23:28.237Z,17.30
2018-09-03T09:25:55.891Z,16.67
2018-09-03T09:28:23.515Z,17.57
2018-09-03T09:30:51.715Z,16.40
2018-09-03T09:33:19.456Z,17.90
2018-09-03T09:35:47.653Z,16.97
2018-09-03T09:38:15.416Z,17.77
2018-09-03T09:40:43.146Z,15.87
2018-09-03T09:43:10.906Z,17.27
2018-09-03T09:45:38.428Z,18.00
2018-09-03T09:48:06.261Z,16.73
2018-09-03T09:50:34.084Z,18.80
2018-09-03T09:53:01.857Z,18.07
2018-09-03T09:55:29.549Z,19.73
2018-09-03T09:57:57.233Z,20.20
2018-09-03T10:01:29.459Z,18.50
2018-09-03T10:03:57.202Z,17.07
2018-09-03T10:06:24.894Z,18.57
2018-09-03T10:08:52.573Z,18.47
2018-09-03T10:11:20.187Z,19.83
2018-09-03T10:13:47.763Z,19.40
2018-09-03T10:16:16.551Z,20.47
2018-09-03T10:18:44.334Z,17.23
2018-09-03T10:21:11.956Z,17.47
2018-09-03T10:23:39.808Z,17.17
2018-09-03T10:26:07.878Z,17.00
2018-09-03T10:28:35.680Z,17.73
2018-09-03T10:31:03.424Z,16.00
2018-09-03T10:33:30.977Z,16.87
2018-09-03T10:35:58.797Z,15.27
2018-09-03T10:38:26.484Z,17.00
2018-09-03T10:40:54.480Z,17.10
2018-09-03T10:43:22.145Z,18.40
2018-09-03T10:45:50.431Z,16.53
2018-09-03T10:48:17.995Z,18.00
2018-09-03T10:50:46.051Z,18.50
2018-09-03T10:53:13.751Z,19.87
2018-09-03T10:55:41.580Z,18.63
2018-09-03T10:58:10.204Z,17.37
2018-09-03T11:00:37.832Z,19.33
2018-09-03T11:03:05.532Z,16.97
2018-09-03T11:05:33.345Z,18.57
2018-09-03T11:08:01.478Z,17.10
2018-09-03T11:10:29.416Z,17.20
2018-09-03T11:12:57.016Z,15.93
2018-09-03T11:15:24.735Z,16.50
2018-09-03T11:17:53.488Z,17.27
2018-09-03T11:20:25.040Z,15.37
2018-09-03T11:22:53.186Z,16.50
2018-09-03T11:25:21.415Z,15.10
2018-09-03T11:27:50.530Z,13.80
2018-09-03T11:30:18.977Z,13.23
2018-09-03T11:32:52.276Z,12.70
2018-09-03T11:35:20.525Z,13.00
2018-09-03T11:37:48.436Z,15.20
2018-09-03T11:40:16.029Z,15.00
2018-09-03T11:42:44.117Z,14.23
2018-09-03T11:45:12.499Z,14.40
2018-09-03T11:47:40.151Z,14.37
2018-09-03T11:50:08.021Z,12.30
2018-09-03T11:52:35.789Z,14.03
2018-09-03T11:55:03.562Z,14.37
2018-09-03T11:57:31.335Z,13.50
2018-09-03T11:59:59.748Z,15.10
2018-09-03T12:02:28.336Z,13.70
2018-09-03T12:04:55.977Z,16.07
2018-09-03T12:07:23.564Z,15.13
2018-09-03T12:09:52.037Z,14.13
2018-09-03T12:12:19.718Z,16.67
2018-09-03T12:14:50.027Z,14.37
2018-09-03T12:17:17.880Z,13.47
2018-09-03T12:19:45.537Z,16.63
2018-09-03T12:22:13.143Z,15.90
2018-09-03T12:24:40.742Z,16.37
2018-09-03T12:27:08.443Z,13.30
2018-09-03T12:29:36.559Z,17.00
2018-09-03T12:32:04.371Z,16.43
2018-09-03T12:34:32.577Z,18.47
2018-09-03T12:37:00.351Z,15.10
2018-09-03T12:39:27.894Z,15.73
2018-09-03T12:41:55.692Z,14.53
2018-09-03T12:44:23.388Z,14.23
2018-09-03T12:46:51.540Z,11.17
2018-09-03T12:49:19.199Z,14.80
2018-09-03T12:51:47.384Z,12.17
2018-09-03T12:54:15.120Z,13.83
2018-09-03T12:56:42.831Z,13.50
2018-09-03T12:59:10.551Z,14.63
2018-09-03T13:01:38.368Z,14.23
2018-09-03T13:04:06.164Z,10.57
2018-09-03T13:06:33.747Z,13.77
2018-09-03T13:09:02.428Z,14.57
2018-09-03T13:11:30.853Z,14.60
2018-09-03T13:13:58.629Z,13.23
2018-09-03T13:16:26.382Z,15.17
2018-09-03T13:18:54.040Z,14.13
2018-09-03T13:21:21.833Z,12.60
2018-09-03T13:23:49.515Z,10.53
2018-09-03T13:26:17.064Z,10.27
2018-09-03T13:28:44.775Z,14.00
2018-09-03T13:31:13.100Z,13.37
2018-09-03T13:33:40.854Z,13.27
2018-09-03T13:36:08.850Z,12.87
2018-09-03T13:38:37.356Z,10.63
2018-09-03T13:41:05.063Z,9.80
2018-09-03T13:43:33.539Z,10.83
2018-09-03T13:46:01.963Z,9.63
2018-09-03T13:48:29.582Z,11.50
2018-09-03T13:50:57.328Z,11.07
2018-09-03T13:53:24.876Z,10.90
2018-09-03T13:55:52.573Z,11.17
2018-09-03T13:58:20.188Z,11.73
2018-09-03T14:00:48.917Z,11.40
2018-09-03T14:03:16.551Z,11.10
2018-09-03T14:05:44.853Z,11.47
2018-09-03T14:08:12.916Z,10.47
2018-09-03T14:10:40.579Z,11.53
2018-09-03T14:13:09.128Z,11.03
2018-09-03T14:15:36.844Z,9.03
2018-09-03T14:18:04.560Z,12.70
2018-09-03T14:20:33.108Z,12.30
2018-09-03T14:23:00.895Z,12.60
2018-09-03T14:25:28.752Z,12.70
2018-09-03T14:27:56.930Z,12.03
2018-09-03T14:30:24.619Z,12.50
2018-09-03T14:32:52.167Z,12.30
2018-09-03T14:35:19.763Z,11.47
2018-09-03T14:37:47.296Z,10.70
2018-09-03T14:40:15.456Z,10.60
2018-09-03T14:42:43.272Z,8.70
2018-09-03T14:45:10.895Z,10.20
2018-09-03T14:47:38.488Z,9.10
2018-09-03T14:50:06.463Z,8.97
2018-09-03T14:52:34.243Z,10.20
2018-09-03T14:55:01.872Z,8.53
2018-09-03T14:57:29.529Z,8.47
2018-09-03T14:59:57.212Z,8.20
2018-09-03T15:02:25.406Z,8.20
2018-09-03T15:04:53.139Z,10.40
2018-09-03T15:07:20.821Z,9.80
2018-09-03T15:09:48.652Z,9.60
2018-09-03T15:12:16.438Z,9.67
2018-09-03T15:14:44.071Z,9.97
2018-09-03T15:17:11.920Z,9.80
2018-09-03T15:19:40.131Z,9.23
2018-09-03T15:22:08.691Z,9.30
2018-09-03T15:24:36.335Z,8.40
2018-09-03T15:27:04.024Z,9.60
2018-09-03T15:29:32.479Z,8.90
2018-09-03T15:32:00.311Z,10.10
2018-09-03T15:34:28.110Z,9.27
2018-09-03T15:36:55.825Z,10.13
2018-09-03T15:39:23.416Z,9.50
2018-09-03T15:41:51.191Z,9.57
2018-09-03T15:44:18.883Z,9.50
2018-09-03T15:46:46.675Z,10.13
2018-09-03T15:49:15.109Z,9.83
2018-09-03T15:51:43.128Z,10.47
2018-09-03T15:54:10.951Z,10.17
2018-09-03T15:56:38.631Z,9.87
2018-09-03T15:59:06.561Z,9.90
2018-09-03T16:01:34.120Z,9.70
2018-09-03T16:04:01.935Z,8.90
2018-09-03T16:06:29.633Z,8.30
2018-09-03T16:08:58.156Z,8.30
2018-09-03T16:11:27.191Z,8.53
2018-09-03T16:13:55.165Z,10.20
2018-09-03T16:16:22.930Z,7.70
2018-09-03T16:18:51.366Z,8.50
2018-09-03T16:21:19.173Z,7.67
2018-09-03T16:23:47.778Z,7.90
2018-09-03T16:26:15.464Z,7.50
2018-09-03T16:28:45.426Z,8.60
2018-09-03T16:31:13.120Z,8.13
2018-09-03T16:33:41.013Z,8.87
2018-09-03T16:36:08.706Z,8.83
2018-09-03T16:38:36.473Z,11.00
2018-09-03T16:41:04.060Z,11.40
2018-09-03T16:43:31.861Z,12.20
2018-09-03T16:45:59.576Z,9.63
2018-09-03T16:48:27.793Z,10.60
2018-09-03T16:50:55.623Z,10.93
2018-09-03T16:53:23.223Z,11.13
2018-09-03T16:55:50.955Z,9.70
2018-09-03T16:58:18.816Z,10.80
2018-09-03T17:00:47.126Z,9.70
2018-09-03T17:03:14.833Z,11.20
2018-09-03T17:05:42.515Z,12.03
2018-09-03T17:08:10.427Z,10.80
2018-09-03T17:10:38.128Z,10.53
2018-09-03T17:13:06.185Z,10.53
2018-09-03T17:15:34.918Z,10.30
2018-09-03T17:18:02.792Z,10.33
2018-09-03T17:20:30.622Z,9.10
2018-09-03T17:22:58.256Z,9.80
2018-09-03T17:25:25.873Z,10.33
2018-09-03T17:27:53.636Z,10.13
2018-09-03T17:30:21.580Z,10.70
2018-09-03T17:32:49.404Z,10.37
2018-09-03T17:35:17.444Z,9.93
2018-09-03T17:37:45.256Z,11.53
2018-09-03T17:40:12.964Z,11.07
2018-09-03T17:42:40.713Z,11.10
2018-09-03T17:45:08.764Z,11.00
2018-09-03T17:47:37.616Z,12.43
2018-09-03T17:50:05.242Z,11.90
2018-09-03T17:52:33.016Z,11.27
2018-09-03T17:55:00.682Z,13.17
2018-09-03T17:57:29.250Z,13.03
2018-09-03T17:59:57.467Z,13.30
2018-09-03T18:02:25.091Z,14.87
2018-09-03T18:04:52.845Z,14.03
2018-09-03T18:07:21.257Z,13.10
2018-09-03T18:09:49.520Z,13.50
2018-09-03T18:12:17.340Z,14.13
2018-09-03T18:14:45.129Z,12.07
2018-09-03T18:17:13.912Z,14.90
2018-09-03T18:19:41.561Z,14.43
2018-09-03T18:22:10.050Z,14.80
2018-09-03T18:24:37.821Z,13.63
2018-09-03T18:27:05.379Z,13.20
2018-09-03T18:29:33.136Z,13.90
2018-09-03T18:32:01.498Z,14.60
2018-09-03T18:34:29.157Z,13.80
2018-09-03T18:36:56.851Z,15.23
2018-09-03T18:39:24.967Z,13.80
2018-09-03T18:41:52.706Z,14.43
2018-09-03T18:44:20.532Z,13.50
2018-09-03T18:46:48.548Z,14.47
2018-09-03T18:49:16.167Z,15.13
2018-09-03T18:51:44.193Z,13.77
2018-09-03T18:54:12.159Z,12.17
2018-09-03T18:56:40.687Z,13.60
2018-09-03T18:59:08.735Z,15.03
2018-09-03T19:01:37.773Z,15.87
2018-09-03T19:04:06.760Z,18.37
2018-09-03T19:06:34.628Z,17.20
2018-09-03T19:09:03.244Z,16.90
2018-09-03T19:11:31.289Z,16.93
2018-09-03T19:14:02.444Z,16.97
2018-09-03T19:16:30.155Z,16.40
2018-09-03T19:18:59.023Z,15.30
2018-09-03T19:21:26.783Z,16.07
2018-09-03T19:23:54.909Z,17.53
2018-09-03T19:26:22.783Z,17.00
2018-09-03T19:28:51.098Z,17.17
2018-09-03T19:31:19.137Z,16.90
2018-09-03T19:33:47.032Z,22.17
2018-09-03T19:36:14.687Z,22.07
2018-09-03T19:38:42.560Z,20.17
2018-09-03T19:41:10.952Z,19.00
2018-09-03T19:43:38.646Z,19.20
2018-09-03T19:46:06.360Z,18.03
2018-09-03T19:48:34.103Z,20.17
2018-09-03T19:51:01.806Z,18.87
2018-09-03T19:53:29.406Z,18.90
2018-09-03T19:55:57.342Z,18.37
2018-09-03T19:58:24.973Z,17.77
2018-09-03T20:00:52.776Z,19.83
2018-09-03T20:03:20.584Z,20.33
2018-09-03T20:05:49.443Z,20.53
2018-09-03T20:08:17.304Z,19.50
2018-09-03T20:10:45.848Z,19.10
2018-09-03T20:13:13.391Z,18.90
2018-09-03T20:15:41.021Z,17.03
2018-09-03T20:18:08.692Z,19.33
2018-09-03T20:20:36.433Z,17.27
2018-09-03T20:23:04.352Z,16.83
2018-09-03T20:25:32.072Z,16.37
2018-09-03T20:28:00.063Z,18.23
2018-09-03T20:30:27.994Z,16.43
2018-09-03T20:32:55.774Z,18.27
2018-09-03T20:35:23.668Z,17.30
2018-09-03T20:37:51.786Z,17.70
2018-09-03T20:40:19.590Z,17.70
2018-09-03T20:42:47.332Z,16.70
2018-09-03T20:45:14.947Z,15.93
2018-09-03T20:47:42.752Z,15.87
2018-09-03T20:50:10.469Z,16.07
2018-09-03T20:52:38.855Z,16.77
2018-09-03T20:55:06.668Z,17.30
2018-09-03T20:57:35.335Z,18.00
2018-09-03T21:00:03.335Z,16.90
2018-09-03T21:02:31.151Z,19.43
2018-09-03T21:04:59.223Z,20.87
2018-09-03T21:07:26.954Z,20.10
2018-09-03T21:09:54.889Z,20.53
2018-09-03T21:12:23.368Z,19.93
2018-09-03T21:14:55.701Z,20.03
2018-09-03T21:17:24.233Z,19.00
2018-09-03T21:19:52.944Z,17.80
2018-09-03T21:22:20.677Z,18.13
2018-09-03T21:24:49.339Z,20.17
2018-09-03T21:27:17.077Z,20.50
2018-09-03T21:29:44.918Z,18.20
2018-09-03T21:32:13.177Z,17.23
2018-09-03T21:34:41.067Z,18.77
2018-09-03T21:37:08.978Z,19.60
2018-09-03T21:39:36.812Z,19.57
2018-09-03T21:42:05.008Z,19.40
2018-09-03T21:44:32.911Z,19.10
2018-09-03T21:47:00.957Z,19.23
2018-09-03T21:49:28.646Z,19.10
2018-09-03T21:51:56.432Z,19.50
2018-09-03T21:54:24.251Z,18.43
2018-09-03T21:56:52.840Z,18.23
2018-09-03T21:59:21.093Z,18.60
2018-09-03T22:01:48.804Z,18.00
2018-09-03T22:04:16.770Z,19.13
2018-09-03T22:06:44.697Z,17.20
2018-09-03T22:09:12.544Z,19.20
2018-09-03T22:11:41.723Z,17.70
2018-09-03T22:14:09.460Z,18.53
2018-09-03T22:16:37.431Z,17.83
2018-09-03T22:19:05.208Z,16.70
2018-09-03T22:21:33.624Z,17.63
2018-09-03T22:24:01.176Z,17.60
2018-09-03T22:26:28.901Z,19.00
2018-09-03T22:28:56.819Z,18.03
2018-09-03T22:31:25.382Z,16.30
2018-09-03T22:33:52.991Z,18.87
2018-09-03T22:36:20.608Z,18.17
2018-09-03T22:38:48.467Z,16.40
2018-09-03T22:41:16.644Z,16.27
2018-09-03T22:43:44.472Z,15.63
2018-09-03T22:46:12.290Z,15.13
2018-09-03T22:48:40.231Z,15.00
2018-09-03T22:51:08.055Z,17.13
2018-09-03T22:53:35.691Z,15.77
2018-09-03T22:56:03.396Z,15.83
2018-09-03T22:58:32.295Z,17.23
2018-09-03T23:01:00.166Z,18.83
2018-09-03T23:03:27.764Z,17.43
2018-09-03T23:05:55.620Z,18.20
2018-09-03T23:08:23.355Z,19.13
2018-09-03T23:10:51.159Z,20.50
2018-09-03T23:13:18.789Z,20.30
2018-09-03T23:15:50.432Z,18.50
2018-09-03T23:18:19.280Z,19.90
2018-09-03T23:20:47.145Z,20.80
2018-09-03T23:23:15.596Z,18.90
2018-09-03T23:25:43.324Z,20.10
2018-09-03T23:28:11.155Z,19.50
2018-09-03T23:30:38.792Z,19.30
2018-09-03T23:33:06.404Z,19.23
2018-09-03T23:35:34.171Z,18.90
2018-09-03T23:38:01.985Z,21.90
2018-09-03T23:40:29.721Z,20.80
2018-09-03T23:42:57.434Z,19.97
2018-09-03T23:45:25.027Z,21.00
2018-09-03T23:47:53.631Z,22.03
2018-09-03T23:50:21.463Z,21.10
2018-09-03T23:52:49.079Z,22.83
2018-09-03T23:55:17.075Z,21.23
2018-09-03T23:57:44.917Z,21.00
